createdAt,value
2023-01-29T00:01:16.275Z,52.10
2023-01-29T00:04:20.041Z,52.07
2023-01-29T00:07:23.954Z,52.07
2023-01-29T00:10:27.883Z,51.77
2023-01-29T00:13:31.550Z,51.80
2023-01-29T00:16:36.284Z,51.53
2023-01-29T00:19:39.721Z,51.58
2023-01-29T00:22:43.082Z,51.33
2023-01-29T00:25:47.134Z,51.37
2023-01-29T00:28:50.427Z,51.21
2023-01-29T00:31:55.567Z,50.94
2023-01-29T00:34:58.778Z,51.25
2023-01-29T00:38:02.588Z,50.97
2023-01-29T00:41:35.202Z,50.84
2023-01-29T00:44:56.418Z,50.65
2023-01-29T00:48:01.425Z,50.56
2023-01-29T00:51:05.600Z,50.49
2023-01-29T00:54:08.930Z,50.58
2023-01-29T00:57:12.558Z,50.38
2023-01-29T01:00:19.671Z,50.44
2023-01-29T01:03:23.745Z,50.40
2023-01-29T01:06:26.957Z,50.42
2023-01-29T01:09:48.177Z,50.38
2023-01-29T01:12:56.626Z,50.11
2023-01-29T01:16:00.931Z,50.25
2023-01-29T01:19:06.391Z,50.15
2023-01-29T01:22:10.083Z,50.24
2023-01-29T01:25:13.951Z,50.07
2023-01-29T01:28:18.325Z,50.04
2023-01-29T01:31:21.667Z,49.87
2023-01-29T01:34:27.837Z,49.83
2023-01-29T01:37:31.608Z,49.88
2023-01-29T01:40:35.499Z,49.84
2023-01-29T01:43:51.032Z,49.46
2023-01-29T01:46:54.707Z,49.67
2023-01-29T01:50:08.812Z,49.80
2023-01-29T01:53:17.716Z,49.63
2023-01-29T01:56:28.412Z,49.46
2023-01-29T01:59:37.999Z,49.29
2023-01-29T02:03:02.392Z,49.40
2023-01-29T02:06:26.045Z,49.51
2023-01-29T02:09:39.560Z,49.20
2023-01-29T02:12:46.681Z,49.18
2023-01-29T02:15:52.572Z,49.11
2023-01-29T02:18:56.602Z,49.09
2023-01-29T02:22:55.046Z,48.65
2023-01-29T02:26:35.301Z,48.96
2023-01-29T02:29:58.147Z,49.00
2023-01-29T02:33:27.311Z,49.00
2023-01-29T02:36:42.868Z,48.87
2023-01-29T02:40:01.150Z,49.07
2023-01-29T02:43:23.568Z,48.93
2023-01-29T02:46:38.029Z,48.99
2023-01-29T02:49:51.571Z,48.97
2023-01-29T02:53:06.418Z,48.89
2023-01-29T02:56:18.102Z,49.03
2023-01-29T02:59:29.469Z,48.79
2023-01-29T03:02:43.782Z,48.78
2023-01-29T03:05:59.843Z,48.78
2023-01-29T03:09:10.764Z,48.80
2023-01-29T03:12:34.189Z,48.56
2023-01-29T03:15:46.938Z,48.61
2023-01-29T03:19:16.402Z,48.62
2023-01-29T03:22:23.335Z,48.41
2023-01-29T03:25:47.602Z,48.55
2023-01-29T03:29:11.830Z,48.43
2023-01-29T03:32:21.067Z,48.42
2023-01-29T03:35:35.385Z,48.67
2023-01-29T03:38:40.177Z,48.44
2023-01-29T03:41:53.226Z,48.38
2023-01-29T03:45:08.649Z,48.52
2023-01-29T03:48:31.966Z,48.79
2023-01-29T03:51:47.465Z,48.29
2023-01-29T03:55:02.207Z,48.72
2023-01-29T03:58:26.347Z,48.28
2023-01-29T04:01:41.712Z,48.44
2023-01-29T04:04:53.268Z,48.46
2023-01-29T04:08:08.348Z,48.54
2023-01-29T04:11:19.625Z,48.32
2023-01-29T04:14:24.495Z,47.54
2023-01-29T04:17:39.028Z,48.31
2023-01-29T04:20:50.168Z,48.36
2023-01-29T04:23:55.435Z,48.31
2023-01-29T04:27:11.825Z,48.30
2023-01-29T04:30:37.360Z,48.24
2023-01-29T04:33:53.453Z,48.11
2023-01-29T04:37:13.734Z,48.27
2023-01-29T04:40:27.053Z,47.99
2023-01-29T04:43:40.124Z,47.92
2023-01-29T04:46:50.741Z,47.74
2023-01-29T04:50:12.950Z,47.89
2023-01-29T04:53:28.913Z,47.84
2023-01-29T04:56:45.646Z,47.97
2023-01-29T04:59:59.331Z,47.65
2023-01-29T05:03:03.849Z,47.85
2023-01-29T05:06:11.831Z,47.72
2023-01-29T05:09:18.170Z,47.71
2023-01-29T05:12:29.665Z,47.77
2023-01-29T05:15:38.982Z,47.72
2023-01-29T05:18:43.091Z,47.49
2023-01-29T05:21:51.071Z,47.67
2023-01-29T05:24:54.425Z,47.42
2023-01-29T05:28:04.569Z,47.59
2023-01-29T05:31:09.144Z,47.64
2023-01-29T05:34:13.139Z,47.75
2023-01-29T05:37:16.511Z,47.51
2023-01-29T05:40:20.719Z,47.52
2023-01-29T05:43:27.131Z,47.53
2023-01-29T05:46:30.985Z,47.74
2023-01-29T05:49:34.487Z,47.43
2023-01-29T05:52:38.664Z,47.57
2023-01-29T05:55:46.549Z,47.63
2023-01-29T05:58:51.675Z,47.58
2023-01-29T06:01:55.198Z,47.71
2023-01-29T06:04:59.043Z,47.61
2023-01-29T06:08:02.714Z,47.80
2023-01-29T06:11:11.084Z,47.46
2023-01-29T06:14:15.920Z,47.28
2023-01-29T06:17:19.616Z,47.64
2023-01-29T06:20:23.517Z,47.64
2023-01-29T06:23:27.075Z,47.87
2023-01-29T06:26:30.650Z,47.89
2023-01-29T06:29:35.563Z,48.13
2023-01-29T06:32:39.001Z,47.99
2023-01-29T06:35:42.589Z,48.33
2023-01-29T06:38:47.224Z,48.41
2023-01-29T06:41:50.939Z,48.45
2023-01-29T06:44:55.743Z,48.57
2023-01-29T06:48:01.333Z,48.49
2023-01-29T06:51:06.591Z,48.55
2023-01-29T06:54:11.613Z,48.72
2023-01-29T06:57:14.996Z,48.66
2023-01-29T07:00:20.655Z,48.64
2023-01-29T07:03:24.211Z,48.62
2023-01-29T07:06:31.823Z,48.73
2023-01-29T07:09:35.480Z,48.88
2023-01-29T07:12:39.160Z,49.44
2023-01-29T07:15:44.535Z,49.65
2023-01-29T07:18:47.982Z,49.70
2023-01-29T07:21:51.449Z,49.94
2023-01-29T07:24:54.931Z,49.71
2023-01-29T07:28:01.647Z,49.67
2023-01-29T07:31:07.585Z,50.10
2023-01-29T07:34:10.907Z,49.23
2023-01-29T07:37:14.500Z,49.07
2023-01-29T07:40:18.712Z,48.76
2023-01-29T07:43:24.827Z,48.67
2023-01-29T07:46:29.441Z,48.48
2023-01-29T07:49:32.886Z,48.35
2023-01-29T07:52:36.181Z,48.25
2023-01-29T07:55:39.697Z,48.03
2023-01-29T07:58:43.068Z,47.83
2023-01-29T08:01:48.016Z,47.76
2023-01-29T08:04:51.339Z,47.61
2023-01-29T08:08:06.040Z,47.29
2023-01-29T08:11:10.041Z,47.41
2023-01-29T08:14:13.612Z,47.79
2023-01-29T08:17:18.566Z,47.55
2023-01-29T08:20:23.482Z,48.15
2023-01-29T08:23:26.777Z,48.33
2023-01-29T08:26:30.698Z,48.26
2023-01-29T08:29:34.065Z,48.18
2023-01-29T08:32:39.101Z,48.08
2023-01-29T08:35:42.348Z,48.08
2023-01-29T08:38:45.923Z,48.33
2023-01-29T08:41:49.384Z,48.06
2023-01-29T08:44:53.509Z,47.89
2023-01-29T08:47:58.351Z,48.14
2023-01-29T08:51:04.476Z,47.91
2023-01-29T08:54:07.815Z,47.95
2023-01-29T08:57:11.290Z,47.78
2023-01-29T09:00:16.781Z,47.74
2023-01-29T09:03:22.074Z,47.75
2023-01-29T09:06:25.469Z,47.73
2023-01-29T09:09:29.249Z,47.96
2023-01-29T09:12:32.691Z,47.84
2023-01-29T09:15:36.222Z,47.57
2023-01-29T09:18:41.001Z,47.69
2023-01-29T09:21:44.452Z,47.51
2023-01-29T09:24:47.641Z,47.26
2023-01-29T09:27:51.117Z,47.39
2023-01-29T09:30:54.595Z,46.96
2023-01-29T09:33:59.523Z,46.90
2023-01-29T09:37:05.588Z,46.53
2023-01-29T09:40:25.904Z,46.86
2023-01-29T09:43:43.619Z,46.44
2023-01-29T09:46:51.409Z,46.24
2023-01-29T09:50:02.250Z,45.98
2023-01-29T09:53:19.307Z,46.14
2023-01-29T09:56:28.813Z,45.62
2023-01-29T09:59:33.523Z,45.75
2023-01-29T10:03:10.687Z,45.47
2023-01-29T10:06:34.872Z,46.32
2023-01-29T10:10:10.265Z,45.44
2023-01-29T10:13:28.344Z,45.70
2023-01-29T10:16:51.958Z,45.66
2023-01-29T10:20:21.181Z,45.70
2023-01-29T10:23:33.498Z,45.77
2023-01-29T10:26:38.650Z,45.74
2023-01-29T10:29:46.359Z,45.60
2023-01-29T10:32:51.638Z,45.82
2023-01-29T10:36:03.186Z,45.74
2023-01-29T10:39:18.915Z,45.88
2023-01-29T10:42:34.756Z,45.28
2023-01-29T10:45:50.910Z,45.48
2023-01-29T10:49:18.093Z,45.08
2023-01-29T10:52:46.660Z,44.99
2023-01-29T10:56:21.843Z,44.78
2023-01-29T10:59:53.263Z,44.74
2023-01-29T11:02:57.350Z,44.63
2023-01-29T11:06:13.826Z,44.45
2023-01-29T11:12:40.304Z,44.73
2023-01-29T11:15:43.588Z,44.08
2023-01-29T11:18:57.839Z,43.81
2023-01-29T11:22:04.329Z,43.73
2023-01-29T11:25:19.069Z,43.71
2023-01-29T11:28:40.966Z,43.35
2023-01-29T11:31:44.510Z,43.38
2023-01-29T11:35:03.176Z,44.14
2023-01-29T11:38:20.921Z,45.25
2023-01-29T11:41:25.456Z,45.41
2023-01-29T11:44:34.019Z,45.82
2023-01-29T11:47:37.601Z,46.15
2023-01-29T11:50:42.015Z,46.44
2023-01-29T11:53:51.141Z,46.74
2023-01-29T11:56:55.302Z,46.89
2023-01-29T12:00:06.344Z,46.33
2023-01-29T12:03:24.888Z,46.03
2023-01-29T12:06:37.790Z,45.70
2023-01-29T12:09:41.727Z,45.80
2023-01-29T12:12:46.279Z,45.71
2023-01-29T12:16:06.087Z,45.60
2023-01-29T12:19:27.531Z,45.43
2023-01-29T12:22:46.719Z,45.28
2023-01-29T12:26:12.898Z,45.29
2023-01-29T12:29:31.267Z,45.18
2023-01-29T12:32:46.498Z,45.40
2023-01-29T12:36:03.216Z,45.56
2023-01-29T12:39:06.711Z,46.55
2023-01-29T12:42:20.461Z,47.22
2023-01-29T12:45:28.106Z,46.88
2023-01-29T12:48:39.390Z,46.61
2023-01-29T12:51:56.707Z,46.61
2023-01-29T12:55:08.486Z,46.76
2023-01-29T12:58:20.207Z,46.82
2023-01-29T13:01:35.405Z,46.66
2023-01-29T13:04:50.205Z,46.62
2023-01-29T13:08:04.560Z,46.59
2023-01-29T13:11:19.395Z,46.47
2023-01-29T13:14:39.100Z,46.45
2023-01-29T13:17:48.639Z,46.73
2023-01-29T13:20:58.214Z,47.13
2023-01-29T13:24:07.751Z,46.89
2023-01-29T13:27:26.794Z,46.67
2023-01-29T13:30:38.608Z,46.57
2023-01-29T13:33:45.793Z,46.45
2023-01-29T13:36:55.872Z,46.39
2023-01-29T13:40:03.741Z,46.37
2023-01-29T13:43:08.357Z,46.33
2023-01-29T13:46:22.018Z,46.43
2023-01-29T13:49:38.300Z,46.17
2023-01-29T13:52:48.894Z,46.51
2023-01-29T13:55:53.146Z,46.58
2023-01-29T13:58:59.345Z,46.56
2023-01-29T14:02:20.290Z,46.33
2023-01-29T14:05:44.198Z,46.50
2023-01-29T14:08:48.811Z,46.27
2023-01-29T14:11:52.610Z,46.89
2023-01-29T14:15:20.681Z,46.82
2023-01-29T14:18:27.342Z,46.77
2023-01-29T14:21:34.473Z,46.73
2023-01-29T14:24:44.321Z,46.99
2023-01-29T14:27:49.572Z,47.03
2023-01-29T14:30:55.105Z,47.11
2023-01-29T14:34:04.634Z,47.83
2023-01-29T14:37:26.946Z,48.94
2023-01-29T14:40:35.718Z,50.55
2023-01-29T14:43:39.300Z,51.91
2023-01-29T14:46:45.943Z,53.12
2023-01-29T14:49:55.409Z,54.27
2023-01-29T14:53:06.313Z,54.91
2023-01-29T14:56:18.574Z,55.53
2023-01-29T14:59:30.543Z,56.53
2023-01-29T15:02:43.015Z,57.99
2023-01-29T15:05:50.517Z,59.82
2023-01-29T15:09:06.319Z,60.29
2023-01-29T15:12:23.992Z,60.90
2023-01-29T15:15:39.055Z,62.04
2023-01-29T15:18:44.600Z,62.41
2023-01-29T15:22:12.133Z,62.20
2023-01-29T15:25:19.239Z,61.29
2023-01-29T15:28:28.004Z,60.84
2023-01-29T15:31:31.637Z,58.78
2023-01-29T15:34:35.557Z,57.65
2023-01-29T15:37:39.631Z,56.68
2023-01-29T15:40:52.844Z,56.38
2023-01-29T15:43:59.249Z,56.17
2023-01-29T15:47:03.895Z,55.58
2023-01-29T15:50:12.166Z,55.49
2023-01-29T15:53:21.179Z,54.98
2023-01-29T15:56:32.059Z,55.22
2023-01-29T15:59:45.776Z,55.23
2023-01-29T16:02:49.383Z,54.81
2023-01-29T16:05:53.808Z,54.59
2023-01-29T16:08:59.326Z,54.49
2023-01-29T16:12:07.221Z,54.16
2023-01-29T16:15:29.930Z,54.70
2023-01-29T16:18:39.488Z,54.11
2023-01-29T16:21:46.012Z,53.47
2023-01-29T16:24:53.130Z,53.47
2023-01-29T16:27:57.057Z,52.94
2023-01-29T16:31:04.332Z,53.14
2023-01-29T16:34:15.722Z,52.97
2023-01-29T16:37:26.755Z,52.84
2023-01-29T16:40:34.025Z,52.94
2023-01-29T16:43:52.982Z,52.79
2023-01-29T16:46:57.840Z,44.52
2023-01-29T16:50:23.974Z,48.60
2023-01-29T16:53:27.478Z,49.71
2023-01-29T16:56:35.772Z,50.26
2023-01-29T16:59:41.751Z,50.48
2023-01-29T17:02:46.799Z,49.93
2023-01-29T17:05:52.490Z,49.68
2023-01-29T17:08:56.979Z,48.78
2023-01-29T17:12:05.050Z,48.40
2023-01-29T17:15:34.382Z,48.55
2023-01-29T17:18:39.887Z,48.12
2023-01-29T17:21:43.311Z,48.15
2023-01-29T17:24:46.516Z,48.13
2023-01-29T17:27:52.435Z,48.00
2023-01-29T17:31:05.928Z,48.10
2023-01-29T17:34:14.667Z,48.18
2023-01-29T17:37:18.199Z,48.21
2023-01-29T17:40:37.766Z,48.55
2023-01-29T17:43:41.019Z,48.52
2023-01-29T17:46:44.726Z,48.37
2023-01-29T17:49:49.274Z,48.56
2023-01-29T17:52:53.846Z,48.50
2023-01-29T17:55:57.072Z,48.74
2023-01-29T17:59:01.012Z,48.73
2023-01-29T18:02:04.351Z,48.43
2023-01-29T18:05:10.149Z,48.97
2023-01-29T18:08:19.067Z,50.41
2023-01-29T18:11:23.142Z,51.32
2023-01-29T18:14:26.371Z,51.89
2023-01-29T18:17:30.146Z,52.03
2023-01-29T18:20:38.430Z,52.47
2023-01-29T18:23:42.428Z,52.37
2023-01-29T18:26:45.717Z,52.26
2023-01-29T18:29:50.408Z,52.01
2023-01-29T18:32:54.502Z,52.22
2023-01-29T18:36:00.595Z,52.00
2023-01-29T18:39:04.210Z,51.88
2023-01-29T18:42:08.110Z,51.57
2023-01-29T18:45:13.624Z,51.34
2023-01-29T18:48:17.302Z,51.21
2023-01-29T18:51:21.875Z,50.99
2023-01-29T18:54:25.476Z,50.71
2023-01-29T18:58:26.134Z,51.13
2023-01-29T19:00:52.564Z,51.12
2023-01-29T19:03:56.532Z,51.18
2023-01-29T19:07:01.786Z,51.18
2023-01-29T19:10:09.292Z,50.83
2023-01-29T19:13:13.109Z,49.37
2023-01-29T19:16:16.566Z,48.68
2023-01-29T19:19:21.234Z,47.63
2023-01-29T19:22:25.896Z,46.70
2023-01-29T19:25:29.798Z,46.12
2023-01-29T19:28:33.771Z,46.00
2023-01-29T19:31:37.725Z,45.30
2023-01-29T19:34:41.069Z,45.05
2023-01-29T19:37:46.240Z,44.45
2023-01-29T19:40:49.657Z,43.99
2023-01-29T19:43:53.996Z,43.64
2023-01-29T19:46:57.458Z,42.95
2023-01-29T19:50:02.115Z,42.80
2023-01-29T19:53:06.745Z,42.16
2023-01-29T19:56:13.598Z,41.48
2023-01-29T19:59:16.784Z,41.59
2023-01-29T20:02:20.429Z,41.77
2023-01-29T20:05:24.101Z,41.21
2023-01-29T20:08:29.357Z,41.79
2023-01-29T20:11:33.148Z,41.09
2023-01-29T20:14:36.614Z,41.41
2023-01-29T20:17:40.150Z,41.56
2023-01-29T20:20:45.169Z,40.85
2023-01-29T20:23:51.371Z,40.21
2023-01-29T20:26:55.128Z,39.74
2023-01-29T20:29:58.411Z,39.80
2023-01-29T20:33:03.219Z,39.62
2023-01-29T20:36:10.293Z,39.74
2023-01-29T20:39:15.203Z,39.32
2023-01-29T20:42:18.459Z,39.33
2023-01-29T20:45:23.317Z,38.97
2023-01-29T20:48:26.553Z,38.87
2023-01-29T20:51:30.759Z,38.68
2023-01-29T20:54:35.497Z,38.90
2023-01-29T20:57:40.208Z,38.43
2023-01-29T21:00:43.570Z,38.41
2023-01-29T21:03:48.380Z,38.15
2023-01-29T21:06:51.620Z,37.73
2023-01-29T21:09:56.716Z,37.60
2023-01-29T21:13:00.056Z,37.29
2023-01-29T21:16:04.057Z,37.06
2023-01-29T21:19:07.856Z,36.60
2023-01-29T21:22:11.365Z,36.37
2023-01-29T21:25:20.251Z,36.10
2023-01-29T21:28:24.180Z,36.01
2023-01-29T21:31:27.630Z,35.74
2023-01-29T21:34:31.749Z,35.64
2023-01-29T21:37:36.918Z,35.66
2023-01-29T21:40:42.295Z,35.74
2023-01-29T21:43:46.119Z,36.17
2023-01-29T21:46:49.823Z,35.93
2023-01-29T21:49:53.080Z,36.00
2023-01-29T21:52:56.983Z,36.07
2023-01-29T21:56:03.416Z,35.50
2023-01-29T21:59:07.612Z,35.37
2023-01-29T22:02:15.676Z,35.37
2023-01-29T22:05:20.532Z,35.16
2023-01-29T22:08:23.877Z,34.69
2023-01-29T22:11:29.393Z,34.37
2023-01-29T22:14:32.566Z,34.46
2023-01-29T22:17:36.719Z,33.79
2023-01-29T22:20:39.928Z,33.40
2023-01-29T22:23:43.855Z,33.57
2023-01-29T22:26:49.454Z,33.50
2023-01-29T22:29:53.343Z,33.11
2023-01-29T22:32:56.589Z,32.85
2023-01-29T22:36:00.349Z,32.96
2023-01-29T22:39:04.516Z,32.91
2023-01-29T22:42:09.424Z,33.17
2023-01-29T22:45:13.547Z,32.74
2023-01-29T22:48:17.196Z,32.68
2023-01-29T22:51:20.420Z,32.87
2023-01-29T22:54:23.940Z,33.56
2023-01-29T22:57:28.551Z,34.30
2023-01-29T23:00:32.573Z,34.18
2023-01-29T23:03:36.414Z,34.58
2023-01-29T23:06:39.998Z,34.10
2023-01-29T23:09:43.191Z,33.88
2023-01-29T23:12:48.233Z,34.04
2023-01-29T23:16:00.032Z,33.97
2023-01-29T23:19:03.921Z,34.09
2023-01-29T23:22:07.150Z,33.92
2023-01-29T23:25:11.240Z,34.14
2023-01-29T23:28:15.006Z,33.90
2023-01-29T23:31:19.210Z,34.34
2023-01-29T23:34:22.434Z,33.99
2023-01-29T23:37:26.441Z,34.06
2023-01-29T23:40:29.634Z,33.90
2023-01-29T23:43:35.380Z,33.74
2023-01-29T23:46:38.574Z,33.79
2023-01-29T23:49:42.432Z,33.45
2023-01-29T23:52:45.590Z,33.94
2023-01-29T23:55:58.385Z,33.82
2023-01-29T23:59:02.886Z,33.58
